Time;durP1;ratioP1;P1;durP2;ratioP2;P2;SDS_P1;SDS_P2;PMS_P1;PMS_P2;Temp;Humidity;BMP_temperature;BMP_pressure;BME280_temperature;BME280_humidity;BME280_pressure;Samples;Min_cycle;Max_cycle;Signal;HPM_P1;HPM_P2
2023/06/02 00:01:37;;;;;;;1.70;0.70;;;19.70;67.40;;;;;;5119615;28;20777;-61
2023/06/02 00:04:04;;;;;;;1.20;0.80;;;19.80;67.00;;;;;;5119180;28;20832;-61
2023/06/02 00:06:33;;;;;;;1.60;0.80;;;19.80;67.20;;;;;;5119375;28;20831;-62
2023/06/02 00:09:03;;;;;;;1.10;0.70;;;19.70;66.30;;;;;;5119223;28;20432;-61
2023/06/02 00:11:34;;;;;;;1.20;0.80;;;19.70;66.50;;;;;;5118367;28;20527;-61
2023/06/02 00:14:04;;;;;;;1.30;0.80;;;19.60;66.00;;;;;;5118995;28;20436;-62
2023/06/02 00:16:33;;;;;;;1.13;0.70;;;19.60;66.10;;;;;;5118792;28;20420;-62
2023/06/02 00:19:00;;;;;;;2.00;0.80;;;19.60;65.80;;;;;;5118668;28;20747;-62
2023/06/02 00:21:27;;;;;;;1.50;0.80;;;19.60;66.10;;;;;;5118566;28;20416;-62
2023/06/02 00:23:55;;;;;;;0.98;0.70;;;19.50;66.10;;;;;;5118725;28;20424;-61
2023/06/02 00:26:22;;;;;;;1.30;0.80;;;19.50;67.40;;;;;;5118829;28;20422;-64
2023/06/02 00:28:51;;;;;;;1.20;0.70;;;19.40;66.50;;;;;;5118657;28;20865;-62
2023/06/02 00:31:18;;;;;;;1.27;0.80;;;19.40;66.70;;;;;;5118376;28;20720;-62
2023/06/02 00:33:46;;;;;;;1.40;0.80;;;19.40;66.30;;;;;;5118244;28;20697;-61
2023/06/02 00:36:13;;;;;;;1.10;0.80;;;19.30;66.90;;;;;;5117909;28;20428;-64
2023/06/02 00:38:41;;;;;;;1.58;0.80;;;19.30;66.60;;;;;;5117413;28;20420;-62
2023/06/02 00:41:08;;;;;;;1.40;0.80;;;19.30;66.30;;;;;;5117109;28;20916;-62
2023/06/02 00:43:35;;;;;;;1.20;0.80;;;19.40;67.20;;;;;;5115566;28;20427;-63
2023/06/02 00:46:04;;;;;;;2.20;0.80;;;19.40;66.60;;;;;;5116556;28;20431;-62
2023/06/02 00:48:31;;;;;;;1.33;0.80;;;19.40;67.40;;;;;;5116730;28;20477;-62
2023/06/02 00:50:58;;;;;;;1.10;0.80;;;19.40;67.20;;;;;;5117023;28;20512;-62
2023/06/02 00:53:25;;;;;;;1.42;0.70;;;19.30;67.60;;;;;;5117085;28;20427;-62
2023/06/02 00:55:53;;;;;;;1.20;0.80;;;19.20;67.20;;;;;;5116470;28;20420;-61
2023/06/02 00:58:21;;;;;;;0.90;0.70;;;19.10;67.80;;;;;;5115841;28;20423;-62
2023/06/02 01:00:48;;;;;;;1.60;0.70;;;19.10;68.30;;;;;;5115577;28;20770;-61
2023/06/02 01:03:17;;;;;;;1.20;0.80;;;19.10;68.00;;;;;;5114907;28;20428;-61
2023/06/02 01:05:47;;;;;;;1.48;0.80;;;19.10;67.60;;;;;;5115113;28;20432;-62
2023/06/02 01:08:16;;;;;;;1.30;0.80;;;19.10;67.60;;;;;;5116937;28;20769;-61
2023/06/02 01:10:43;;;;;;;1.17;0.70;;;19.00;67.50;;;;;;5116754;28;20432;-62
2023/06/02 01:13:10;;;;;;;1.50;0.80;;;19.00;67.30;;;;;;5117530;28;20785;-62
2023/06/02 01:15:37;;;;;;;1.80;0.80;;;18.90;67.90;;;;;;5117619;28;20427;-63
2023/06/02 01:18:09;;;;;;;1.20;0.82;;;18.80;68.20;;;;;;5117533;28;20424;-63
2023/06/02 01:20:44;;;;;;;1.52;0.90;;;18.80;68.50;;;;;;5117597;28;20448;-61
2023/06/02 01:23:16;;;;;;;1.90;0.90;;;18.80;69.10;;;;;;5117214;28;20473;-62
2023/06/02 01:25:46;;;;;;;2.10;0.80;;;18.80;69.00;;;;;;5117709;28;20420;-62
2023/06/02 01:28:14;;;;;;;1.30;0.80;;;18.80;69.50;;;;;;5117415;28;20420;-62
2023/06/02 01:30:41;;;;;;;1.30;0.90;;;18.80;69.10;;;;;;5117062;28;20920;-62
2023/06/02 01:33:16;;;;;;;1.40;0.80;;;18.70;70.10;;;;;;5117529;28;20412;-63
2023/06/02 01:35:47;;;;;;;1.20;0.80;;;18.60;70.50;;;;;;5116089;28;20427;-62
2023/06/02 01:38:15;;;;;;;1.30;0.80;;;18.60;70.50;;;;;;5116881;28;20420;-63
2023/06/02 01:40:44;;;;;;;2.63;0.80;;;18.60;70.80;;;;;;5117268;28;20416;-62
2023/06/02 01:43:12;;;;;;;1.70;0.80;;;18.60;71.60;;;;;;5117197;28;20831;-63
2023/06/02 01:45:41;;;;;;;1.80;0.82;;;18.50;71.80;;;;;;5117129;28;20432;-62
2023/06/02 01:48:09;;;;;;;1.60;0.70;;;18.30;72.90;;;;;;5116891;28;20424;-63
2023/06/02 01:50:37;;;;;;;1.20;0.80;;;18.30;73.80;;;;;;5116797;28;20428;-61
2023/06/02 01:53:05;;;;;;;1.77;0.80;;;18.30;74.40;;;;;;5117179;28;20431;-63
2023/06/02 01:55:32;;;;;;;1.30;0.80;;;18.30;74.80;;;;;;5117025;28;20427;-63
2023/06/02 01:58:01;;;;;;;3.65;0.85;;;18.20;75.40;;;;;;5117096;28;20471;-63
2023/06/02 02:00:28;;;;;;;1.30;0.80;;;18.30;76.30;;;;;;5116798;28;20428;-62
2023/06/02 02:02:55;;;;;;;1.60;0.80;;;18.20;76.40;;;;;;5116924;28;20427;-62
2023/06/02 02:05:22;;;;;;;2.85;0.98;;;18.00;77.20;;;;;;5116680;28;20759;-62
2023/06/02 02:07:50;;;;;;;1.33;0.80;;;17.90;78.40;;;;;;5117353;28;20421;-61
2023/06/02 02:10:18;;;;;;;1.70;0.90;;;17.90;78.80;;;;;;5117036;28;20881;-61
2023/06/02 02:12:45;;;;;;;1.40;0.90;;;18.00;78.90;;;;;;5116400;28;20432;-61
2023/06/02 02:15:14;;;;;;;1.30;0.80;;;18.10;78.80;;;;;;5116267;28;20432;-63
2023/06/02 02:17:45;;;;;;;1.60;0.80;;;18.00;79.00;;;;;;5115583;28;20726;-62
2023/06/02 02:20:13;;;;;;;1.20;0.90;;;18.00;79.30;;;;;;5116572;28;20424;-62
2023/06/02 02:22:41;;;;;;;1.40;0.90;;;18.00;79.80;;;;;;5116648;28;20491;-62
2023/06/02 02:25:08;;;;;;;1.58;0.90;;;18.00;80.40;;;;;;5116622;28;20473;-63
2023/06/02 02:27:36;;;;;;;1.88;0.90;;;18.00;81.40;;;;;;5115969;28;20411;-63
2023/06/02 02:30:09;;;;;;;1.80;1.00;;;17.90;81.80;;;;;;5114443;28;20459;-63
2023/06/02 02:32:39;;;;;;;1.55;1.00;;;17.90;82.60;;;;;;5114271;28;20481;-62
2023/06/02 02:35:07;;;;;;;1.60;0.90;;;17.80;83.10;;;;;;5114663;28;20431;-63
2023/06/02 02:37:35;;;;;;;1.10;0.80;;;17.70;84.20;;;;;;5114889;28;20482;-63
2023/06/02 02:40:03;;;;;;;1.40;0.90;;;17.50;85.70;;;;;;5114478;28;20424;-63
2023/06/02 02:42:30;;;;;;;3.10;1.00;;;17.50;87.00;;;;;;5115854;28;20518;-63
2023/06/02 02:44:57;;;;;;;2.00;0.90;;;17.50;87.90;;;;;;5115587;28;20432;-63
2023/06/02 02:47:24;;;;;;;1.30;0.80;;;17.50;88.30;;;;;;5115979;28;20488;-63
2023/06/02 02:49:52;;;;;;;1.50;0.90;;;17.50;89.20;;;;;;5114490;28;20416;-62
2023/06/02 02:52:20;;;;;;;1.35;0.90;;;17.30;90.30;;;;;;5116237;28;20432;-63
2023/06/02 02:54:47;;;;;;;1.70;0.90;;;17.30;91.00;;;;;;5115768;28;20424;-63
2023/06/02 02:57:15;;;;;;;1.60;0.82;;;17.30;91.20;;;;;;5115784;28;20462;-63
2023/06/02 02:59:42;;;;;;;2.10;1.00;;;17.20;92.00;;;;;;5115989;28;20473;-62
2023/06/02 03:02:10;;;;;;;2.22;0.90;;;17.20;92.50;;;;;;5115752;28;20424;-62
2023/06/02 03:04:37;;;;;;;1.50;0.90;;;17.20;93.00;;;;;;5115003;28;20450;-62
2023/06/02 03:07:06;;;;;;;2.83;1.05;;;17.20;93.60;;;;;;5116050;28;20499;-62
2023/06/02 03:09:33;;;;;;;1.67;1.00;;;17.10;94.70;;;;;;5115661;28;20432;-62
2023/06/02 03:12:00;;;;;;;1.30;0.90;;;17.00;95.60;;;;;;5115522;28;20436;-63
2023/06/02 03:14:28;;;;;;;1.40;0.90;;;16.80;96.80;;;;;;5115391;28;20543;-62
2023/06/02 03:16:56;;;;;;;2.17;0.98;;;16.70;98.40;;;;;;5115359;28;20412;-61
2023/06/02 03:19:26;;;;;;;1.30;0.90;;;16.70;99.90;;;;;;5115592;28;20844;-62
2023/06/02 03:21:55;;;;;;;1.52;0.95;;;16.70;99.90;;;;;;5115939;28;20716;-62
2023/06/02 03:24:24;;;;;;;2.40;1.00;;;16.70;99.90;;;;;;5115570;28;20481;-62
2023/06/02 03:26:52;;;;;;;1.50;1.00;;;16.70;99.90;;;;;;5115449;28;20428;-62
2023/06/02 03:29:19;;;;;;;1.58;1.00;;;16.70;99.90;;;;;;5114187;28;20428;-62
2023/06/02 03:31:46;;;;;;;1.60;0.90;;;16.80;99.90;;;;;;5115286;28;20420;-62
2023/06/02 03:34:13;;;;;;;2.17;1.08;;;16.80;99.90;;;;;;5115208;28;20836;-62
2023/06/02 03:36:40;;;;;;;2.50;0.90;;;16.60;99.90;;;;;;5115045;28;20431;-62
2023/06/02 03:39:10;;;;;;;1.40;1.00;;;16.60;99.90;;;;;;5114986;28;20424;-62
2023/06/02 03:41:38;;;;;;;2.33;1.00;;;16.60;99.90;;;;;;5115276;28;20428;-60
2023/06/02 03:44:06;;;;;;;1.40;0.82;;;16.60;99.90;;;;;;5115712;28;20629;-61
2023/06/02 03:46:33;;;;;;;2.13;1.05;;;16.60;99.90;;;;;;5115185;28;20766;-62
2023/06/02 03:49:00;;;;;;;1.70;0.90;;;16.60;99.90;;;;;;5114629;28;20424;-61
2023/06/02 03:51:27;;;;;;;2.80;1.00;;;16.50;99.90;;;;;;5113848;28;20440;-61
2023/06/02 03:53:54;;;;;;;1.83;1.00;;;16.50;99.90;;;;;;5114848;28;20439;-61
2023/06/02 03:56:22;;;;;;;3.00;1.10;;;16.30;99.90;;;;;;5114468;28;20961;-58
2023/06/02 03:58:50;;;;;;;1.90;0.90;;;16.30;99.90;;;;;;5114791;28;20847;-57
2023/06/02 04:01:18;;;;;;;2.30;0.90;;;16.30;99.90;;;;;;5114840;28;20469;-58
2023/06/02 04:03:45;;;;;;;4.75;1.05;;;16.60;99.90;;;;;;5115414;28;20713;-57
2023/06/02 04:06:13;;;;;;;2.05;1.00;;;16.70;99.90;;;;;;5115390;28;20428;-57
2023/06/02 04:08:40;;;;;;;1.90;1.10;;;16.70;99.90;;;;;;5114922;28;20449;-57
2023/06/02 04:11:07;;;;;;;2.60;1.05;;;16.60;99.90;;;;;;5114458;28;20786;-53
2023/06/02 04:13:34;;;;;;;3.10;1.20;;;16.40;99.90;;;;;;5114923;28;20416;-56
2023/06/02 04:16:03;;;;;;;3.42;1.20;;;16.30;99.90;;;;;;5114080;28;20432;-54
2023/06/02 04:18:31;;;;;;;3.10;1.13;;;16.20;99.90;;;;;;5115007;28;20851;-52
2023/06/02 04:20:58;;;;;;;1.80;1.10;;;16.20;99.90;;;;;;5115125;28;20489;-56
2023/06/02 04:23:25;;;;;;;1.75;1.00;;;16.10;99.90;;;;;;5114675;28;20709;-57
2023/06/02 04:25:52;;;;;;;1.90;1.00;;;16.00;99.90;;;;;;5115230;28;20503;-55
2023/06/02 04:28:20;;;;;;;2.00;1.20;;;16.10;99.90;;;;;;5114386;28;20426;-56
2023/06/02 04:30:48;;;;;;;2.58;1.10;;;16.10;99.90;;;;;;5114654;28;20432;-56
2023/06/02 04:33:17;;;;;;;2.30;1.10;;;16.00;99.90;;;;;;5114131;28;20432;-56
2023/06/02 04:35:44;;;;;;;3.10;1.10;;;15.80;99.90;;;;;;5114753;28;20736;-54
2023/06/02 04:38:12;;;;;;;3.97;1.00;;;15.90;99.90;;;;;;5114767;28;20474;-54
2023/06/02 04:40:39;;;;;;;2.30;1.20;;;16.00;99.90;;;;;;5115229;28;20424;-56
2023/06/02 04:43:06;;;;;;;2.20;1.10;;;16.00;99.90;;;;;;5118103;28;20412;-55
2023/06/02 04:45:33;;;;;;;2.92;1.10;;;16.00;99.90;;;;;;5118445;28;20431;-56
2023/06/02 04:48:01;;;;;;;2.67;1.00;;;16.00;99.90;;;;;;5117806;28;20778;-56
2023/06/02 04:50:30;;;;;;;2.60;1.20;;;16.10;99.90;;;;;;5117666;28;20523;-56
2023/06/02 04:52:57;;;;;;;2.60;1.10;;;16.00;99.90;;;;;;5116868;28;20440;-55
2023/06/02 04:55:24;;;;;;;2.28;1.15;;;15.90;99.90;;;;;;5115960;28;20452;-54
2023/06/02 04:57:51;;;;;;;2.00;1.00;;;15.90;99.90;;;;;;5116976;28;20427;-54
2023/06/02 05:00:19;;;;;;;3.83;1.30;;;15.90;99.90;;;;;;5117220;28;20713;-53
2023/06/02 05:02:46;;;;;;;1.90;1.10;;;15.70;99.90;;;;;;5117934;28;20427;-56
2023/06/02 05:05:13;;;;;;;1.80;1.00;;;15.60;99.90;;;;;;5117721;28;20477;-56
2023/06/02 05:07:41;;;;;;;2.70;1.20;;;15.80;99.90;;;;;;5116628;28;20420;-57
2023/06/02 05:10:09;;;;;;;2.40;1.20;;;15.80;99.90;;;;;;5116571;28;20424;-54
2023/06/02 05:12:41;;;;;;;2.17;1.27;;;15.80;99.90;;;;;;5116908;28;20493;-55
2023/06/02 05:15:09;;;;;;;1.97;1.10;;;15.70;99.90;;;;;;5117595;28;20492;-56
2023/06/02 05:17:36;;;;;;;3.25;1.25;;;15.80;99.90;;;;;;5117472;28;20455;-56
2023/06/02 05:20:04;;;;;;;1.90;1.20;;;15.80;99.90;;;;;;5117047;28;20481;-56
2023/06/02 05:22:31;;;;;;;4.05;1.50;;;15.80;99.90;;;;;;5112790;28;20487;-54
2023/06/02 05:25:00;;;;;;;2.00;1.20;;;15.80;99.90;;;;;;5113891;28;20444;-54
2023/06/02 05:27:27;;;;;;;2.50;1.10;;;15.80;99.90;;;;;;5115509;28;20424;-57
2023/06/02 05:29:54;;;;;;;2.95;1.20;;;15.80;99.90;;;;;;5116222;28;20519;-57
2023/06/02 05:32:24;;;;;;;2.70;1.40;;;15.60;99.90;;;;;;5115787;28;20527;-56
2023/06/02 05:34:51;;;;;;;2.28;1.23;;;15.60;99.90;;;;;;5115564;28;20416;-55
2023/06/02 05:37:19;;;;;;;3.20;1.10;;;15.60;99.90;;;;;;5114654;28;20920;-56
2023/06/02 05:39:46;;;;;;;1.50;1.00;;;15.70;99.90;;;;;;5115312;28;20430;-51
2023/06/02 05:42:15;;;;;;;2.55;1.30;;;15.70;99.90;;;;;;5116221;28;20420;-55
2023/06/02 05:44:42;;;;;;;1.70;1.10;;;15.80;99.90;;;;;;5116624;28;20959;-54
2023/06/02 05:47:09;;;;;;;2.50;1.20;;;15.70;99.90;;;;;;5115690;28;20420;-58
2023/06/02 05:49:36;;;;;;;2.37;1.10;;;15.70;99.90;;;;;;5114376;28;20435;-57
2023/06/02 05:52:03;;;;;;;2.07;1.10;;;15.70;99.90;;;;;;5112320;28;20424;-55
2023/06/02 05:54:30;;;;;;;3.03;1.23;;;15.80;99.90;;;;;;5112548;28;20484;-56
2023/06/02 05:56:57;;;;;;;3.60;1.30;;;15.90;99.90;;;;;;5111848;28;20483;-56
2023/06/02 05:59:25;;;;;;;2.58;1.10;;;15.90;99.90;;;;;;5113406;28;20493;-55
2023/06/02 06:01:52;;;;;;;2.23;1.20;;;16.00;99.90;;;;;;5114439;28;20493;-53
2023/06/02 06:04:20;;;;;;;3.92;1.50;;;15.90;99.90;;;;;;5114675;28;20416;-54
2023/06/02 06:06:47;;;;;;;2.60;1.30;;;15.90;99.90;;;;;;5111439;28;20468;-55
2023/06/02 06:09:15;;;;;;;1.95;1.23;;;15.90;99.90;;;;;;5112205;28;20477;-53
2023/06/02 06:11:43;;;;;;;1.70;1.20;;;15.90;99.90;;;;;;5112997;28;20432;-52
2023/06/02 06:14:10;;;;;;;3.35;1.20;;;16.00;99.90;;;;;;5101762;28;20825;-55
2023/06/02 06:16:39;;;;;;;3.00;1.20;;;16.00;99.90;;;;;;5103045;28;20418;-53
2023/06/02 06:19:06;;;;;;;2.70;1.20;;;16.10;99.90;;;;;;5090354;28;20452;-51
2023/06/02 06:21:34;;;;;;;2.35;1.20;;;16.20;99.90;;;;;;5105739;28;20441;-51
2023/06/02 06:24:02;;;;;;;2.90;1.20;;;16.20;99.90;;;;;;5092843;28;20772;-48
2023/06/02 06:26:29;;;;;;;2.42;1.33;;;16.10;99.90;;;;;;5090464;28;20444;-50
2023/06/02 06:28:56;;;;;;;2.00;1.20;;;16.30;99.90;;;;;;5106008;28;20412;-50
2023/06/02 06:31:23;;;;;;;4.25;1.30;;;16.40;99.90;;;;;;5092290;28;20422;-52
2023/06/02 06:33:51;;;;;;;2.80;1.20;;;16.50;99.90;;;;;;5091027;28;20436;-52
2023/06/02 06:36:18;;;;;;;2.40;1.30;;;16.60;99.90;;;;;;5101569;28;20485;-50
2023/06/02 06:38:45;;;;;;;2.80;1.20;;;16.60;99.90;;;;;;5108262;28;20425;-51
2023/06/02 06:41:12;;;;;;;1.80;1.20;;;16.70;99.90;;;;;;5092003;28;20764;-50
2023/06/02 06:43:40;;;;;;;3.80;1.20;;;16.80;99.90;;;;;;5102204;28;20412;-51
2023/06/02 06:46:07;;;;;;;2.78;1.30;;;16.80;99.90;;;;;;5113690;28;20731;-49
2023/06/02 06:48:34;;;;;;;1.63;1.20;;;16.90;99.90;;;;;;5113099;28;20427;-47
2023/06/02 06:51:02;;;;;;;2.60;1.63;;;16.90;99.90;;;;;;5112739;28;21036;-50
2023/06/02 06:53:29;;;;;;;2.40;1.20;;;16.80;99.90;;;;;;5114473;28;20709;-52
2023/06/02 06:55:56;;;;;;;2.20;1.10;;;16.70;99.90;;;;;;5112187;28;20412;-52
2023/06/02 06:58:23;;;;;;;2.13;1.33;;;16.70;99.90;;;;;;5111517;28;20416;-53
2023/06/02 07:00:50;;;;;;;2.50;1.40;;;16.90;99.90;;;;;;5111914;28;20960;-51
2023/06/02 07:03:17;;;;;;;2.20;1.20;;;16.90;99.90;;;;;;5112126;28;20851;-48
2023/06/02 07:05:44;;;;;;;2.50;1.13;;;17.30;99.90;;;;;;5091454;28;20428;-50
2023/06/02 07:08:13;;;;;;;2.20;1.20;;;17.70;99.90;;;;;;5089800;28;20421;-47
2023/06/02 07:10:40;;;;;;;2.40;1.13;;;17.90;99.90;;;;;;5093720;28;20414;-50
2023/06/02 07:13:07;;;;;;;2.33;1.20;;;17.90;99.90;;;;;;5090920;28;20521;-50
2023/06/02 07:15:34;;;;;;;2.80;1.20;;;17.80;99.90;;;;;;5105343;28;20433;-48
2023/06/02 07:18:01;;;;;;;1.50;1.00;;;17.80;99.90;;;;;;5092271;28;20757;-52
2023/06/02 07:20:28;;;;;;;1.60;1.10;;;18.10;99.90;;;;;;5090375;28;20432;-52
2023/06/02 07:22:55;;;;;;;1.80;1.20;;;18.10;99.90;;;;;;5089041;28;20764;-52
2023/06/02 07:25:24;;;;;;;1.90;1.20;;;18.30;99.90;;;;;;5091719;28;21220;-51
2023/06/02 07:27:53;;;;;;;2.40;1.30;;;18.40;99.90;;;;;;5091450;28;20837;-50
2023/06/02 07:30:20;;;;;;;2.50;1.40;;;18.40;99.90;;;;;;5093398;28;20421;-52
2023/06/02 07:32:47;;;;;;;2.40;1.40;;;18.40;99.90;;;;;;5093745;28;20434;-53
2023/06/02 07:35:15;;;;;;;2.40;1.20;;;18.10;99.90;;;;;;5091342;28;20456;-51
2023/06/02 07:37:42;;;;;;;2.30;1.27;;;18.20;99.90;;;;;;5092728;28;20793;-53
2023/06/02 07:40:10;;;;;;;1.60;1.00;;;18.20;99.90;;;;;;5091322;28;20418;-59
2023/06/02 07:42:39;;;;;;;1.60;1.10;;;18.30;99.90;;;;;;5090405;28;20443;-59
2023/06/02 07:45:07;;;;;;;2.08;1.10;;;18.20;99.90;;;;;;5090437;28;20857;-60
2023/06/02 07:47:34;;;;;;;1.40;1.20;;;18.20;99.90;;;;;;5091771;28;20429;-59
2023/06/02 07:50:02;;;;;;;2.55;1.10;;;18.40;99.90;;;;;;5091616;28;20491;-59
2023/06/02 07:52:29;;;;;;;3.30;1.13;;;18.40;99.90;;;;;;5091316;28;20422;-59
2023/06/02 07:54:56;;;;;;;1.52;1.10;;;18.60;99.90;;;;;;5090750;28;20430;-60
2023/06/02 07:57:23;;;;;;;2.55;1.30;;;18.50;99.90;;;;;;5090617;28;20887;-60
2023/06/02 07:59:54;;;;;;;1.42;1.00;;;18.40;99.90;;;;;;5091959;28;20436;-61
2023/06/02 08:02:21;;;;;;;2.20;1.30;;;18.60;99.90;;;;;;5093116;28;20533;-61
2023/06/02 08:04:48;;;;;;;2.58;1.40;;;18.70;99.90;;;;;;5093302;28;20414;-59
2023/06/02 08:07:16;;;;;;;1.85;1.30;;;18.40;99.90;;;;;;5090854;28;20417;-61
2023/06/02 08:09:43;;;;;;;2.30;1.30;;;18.60;99.90;;;;;;5092009;28;20479;-63
2023/06/02 08:12:10;;;;;;;2.40;1.20;;;18.80;99.90;;;;;;5092255;28;20422;-62
2023/06/02 08:14:37;;;;;;;1.88;1.13;;;18.80;99.90;;;;;;5089842;28;20426;-63
2023/06/02 08:17:06;;;;;;;1.75;1.23;;;18.70;99.90;;;;;;5095764;28;20506;-62
2023/06/02 08:19:35;;;;;;;2.00;1.27;;;18.50;99.90;;;;;;5094728;28;20426;-63
2023/06/02 08:22:02;;;;;;;1.88;1.10;;;18.60;99.90;;;;;;5095337;28;20479;-63
2023/06/02 08:24:29;;;;;;;1.80;1.10;;;18.40;99.90;;;;;;5094248;28;20432;-62
2023/06/02 08:26:56;;;;;;;1.65;1.20;;;18.70;99.90;;;;;;5094501;28;20856;-62
2023/06/02 08:29:23;;;;;;;2.17;1.33;;;18.60;99.90;;;;;;5094611;28;20866;-62
2023/06/02 08:31:51;;;;;;;4.20;1.40;;;18.80;99.90;;;;;;5095994;28;20475;-63
2023/06/02 08:34:20;;;;;;;2.45;1.20;;;18.80;99.90;;;;;;5096920;28;20436;-63
2023/06/02 08:36:51;;;;;;;3.00;1.30;;;19.10;99.90;;;;;;5094551;28;20429;-62
2023/06/02 08:39:18;;;;;;;1.75;1.25;;;19.10;99.90;;;;;;5093501;28;21093;-60
2023/06/02 08:41:49;;;;;;;2.40;1.30;;;19.20;99.90;;;;;;5093643;28;20542;-62
2023/06/02 08:44:16;;;;;;;1.63;1.30;;;19.40;99.90;;;;;;5093060;28;20417;-62
2023/06/02 08:46:46;;;;;;;2.53;1.13;;;19.50;99.90;;;;;;5094651;28;20507;-63
2023/06/02 08:49:17;;;;;;;1.90;1.20;;;19.60;99.90;;;;;;5099000;28;20619;-63
2023/06/02 08:51:48;;;;;;;2.40;1.20;;;19.70;99.90;;;;;;5092143;28;20429;-62
2023/06/02 08:54:16;;;;;;;2.10;1.20;;;19.70;99.90;;;;;;5091483;28;20434;-62
2023/06/02 08:56:44;;;;;;;2.20;1.35;;;19.80;99.90;;;;;;5092353;28;20523;-62
2023/06/02 08:59:11;;;;;;;1.85;1.20;;;20.00;99.90;;;;;;5106450;28;20424;-63
2023/06/02 09:01:41;;;;;;;2.80;1.15;;;20.10;99.90;;;;;;5094744;28;20414;-61
2023/06/02 09:04:08;;;;;;;1.70;1.30;;;20.10;99.90;;;;;;5101532;28;20473;-63
2023/06/02 09:06:36;;;;;;;4.33;1.40;;;19.90;99.90;;;;;;5112790;28;20611;-62
2023/06/02 09:09:05;;;;;;;1.85;1.30;;;19.90;99.90;;;;;;5113090;28;20424;-63
2023/06/02 09:11:33;;;;;;;2.38;1.20;;;19.90;99.90;;;;;;5112221;28;20432;-65
2023/06/02 09:14:00;;;;;;;2.20;1.30;;;20.10;99.90;;;;;;5112767;28;20438;-63
2023/06/02 09:16:37;;;;;;;2.30;1.50;;;20.10;99.90;;;;;;5107885;28;20857;-63
2023/06/02 09:19:04;;;;;;;1.98;1.50;;;20.20;99.90;;;;;;5108683;28;20424;-63
2023/06/02 09:21:32;;;;;;;1.80;1.10;;;20.20;99.90;;;;;;5093318;28;20910;-63
2023/06/02 09:24:01;;;;;;;1.67;1.20;;;20.40;99.90;;;;;;5092922;28;20426;-63
2023/06/02 09:26:31;;;;;;;2.70;1.20;;;20.50;99.90;;;;;;5092763;28;20418;-63
2023/06/02 09:29:06;;;;;;;1.90;1.40;;;20.30;99.90;;;;;;5094122;28;20516;-63
2023/06/02 09:31:47;;;;;;;1.95;1.30;;;20.10;99.90;;;;;;5092182;28;20431;-64
2023/06/02 09:34:15;;;;;;;2.20;1.50;;;20.00;99.90;;;;;;5091113;28;20787;-63
2023/06/02 09:36:43;;;;;;;1.67;1.20;;;20.20;99.90;;;;;;5091489;28;20887;-63
2023/06/02 09:39:10;;;;;;;1.90;1.20;;;20.60;99.90;;;;;;5091298;28;20479;-62
2023/06/02 09:41:40;;;;;;;1.88;1.50;;;20.70;99.90;;;;;;5092251;28;20774;-63
2023/06/02 09:44:18;;;;;;;3.78;1.30;;;20.90;99.90;;;;;;5093583;28;20422;-64
2023/06/02 09:46:45;;;;;;;2.17;1.20;;;20.90;99.90;;;;;;5092357;28;20753;-61
2023/06/02 09:49:13;;;;;;;3.20;1.40;;;21.00;99.90;;;;;;5092278;28;20684;-64
2023/06/02 09:51:40;;;;;;;2.13;1.50;;;21.10;99.90;;;;;;5092766;28;20468;-62
2023/06/02 09:54:08;;;;;;;2.40;1.50;;;21.10;99.90;;;;;;5093226;28;20430;-60
2023/06/02 09:56:36;;;;;;;2.35;1.30;;;21.30;99.90;;;;;;5093369;28;20421;-60
2023/06/02 09:59:06;;;;;;;2.60;1.30;;;21.50;99.90;;;;;;5094206;28;20456;-61
2023/06/02 10:01:34;;;;;;;2.30;1.60;;;21.70;99.90;;;;;;5106681;28;20447;-60
2023/06/02 10:04:02;;;;;;;2.07;1.30;;;21.90;99.90;;;;;;5093475;28;20414;-60
2023/06/02 10:06:50;;;;;;;1.70;1.20;;;21.80;99.90;;;;;;5092184;28;20425;-61
2023/06/02 10:09:33;;;;;;;1.70;1.30;;;21.50;99.90;;;;;;5091676;28;20741;-60
2023/06/02 10:12:20;;;;;;;2.30;1.30;;;21.60;99.90;;;;;;5090845;28;21139;-61
2023/06/02 10:15:15;;;;;;;2.60;1.20;;;21.90;99.90;;;;;;5091367;28;20749;-62
2023/06/02 10:17:53;;;;;;;1.50;1.30;;;22.10;99.90;;;;;;5098285;28;20430;-61
2023/06/02 10:20:27;;;;;;;2.70;1.20;;;22.30;99.90;;;;;;5090284;28;20498;-62
2023/06/02 10:23:06;;;;;;;2.10;1.20;;;22.50;99.90;;;;;;5092387;28;20413;-62
2023/06/02 10:25:42;;;;;;;2.08;1.20;;;22.90;99.90;;;;;;5094292;28;20478;-62
2023/06/02 10:28:09;;;;;;;2.00;1.10;;;23.20;99.90;;;;;;5091177;28;20845;-63
2023/06/02 10:30:38;;;;;;;2.58;1.40;;;23.00;99.90;;;;;;5092190;28;20461;-63
2023/06/02 10:33:07;;;;;;;2.00;1.30;;;22.80;99.90;;;;;;5090449;28;20426;-63
2023/06/02 10:35:57;;;;;;;1.90;1.38;;;22.90;99.90;;;;;;5091411;28;20430;-62
2023/06/02 10:38:28;;;;;;;2.30;1.20;;;23.20;99.90;;;;;;5088649;28;20433;-61
2023/06/02 10:40:55;;;;;;;1.93;1.40;;;23.50;99.90;;;;;;5088651;28;20418;-62
2023/06/02 10:43:23;;;;;;;1.70;1.10;;;24.00;99.90;;;;;;5088279;28;20414;-61
2023/06/02 10:45:51;;;;;;;1.70;1.20;;;24.60;99.90;;;;;;5087518;28;20432;-59
2023/06/02 10:48:41;;;;;;;2.25;1.30;;;24.80;99.90;;;;;;5089924;28;20464;-62
2023/06/02 10:51:09;;;;;;;1.58;1.17;;;25.00;99.90;;;;;;5089982;28;20456;-62
2023/06/02 10:54:13;;;;;;;1.50;1.10;;;25.10;99.90;;;;;;5089050;28;20510;-60
2023/06/02 10:56:41;;;;;;;1.52;1.10;;;25.30;99.90;;;;;;5090988;28;20747;-61
2023/06/02 10:59:10;;;;;;;2.80;1.10;;;25.40;98.90;;;;;;5099685;28;20467;-61
2023/06/02 11:01:52;;;;;;;2.13;1.27;;;25.30;97.90;;;;;;5110586;28;20428;-62
2023/06/02 11:04:26;;;;;;;2.20;1.10;;;24.90;96.70;;;;;;5110298;28;20875;-62
2023/06/02 11:07:21;;;;;;;1.73;1.20;;;25.10;97.50;;;;;;5108829;28;20506;-61
2023/06/02 11:09:51;;;;;;;1.90;1.10;;;25.40;96.00;;;;;;5109878;28;20459;-62
2023/06/02 11:12:18;;;;;;;1.60;1.10;;;25.70;95.80;;;;;;5110078;28;20433;-62
2023/06/02 11:15:14;;;;;;;1.73;1.20;;;25.80;94.10;;;;;;5111199;28;20485;-62
2023/06/02 11:17:42;;;;;;;2.00;1.00;;;26.00;93.00;;;;;;5112468;28;20424;-63
2023/06/02 11:20:10;;;;;;;1.42;1.00;;;26.00;92.30;;;;;;5111443;28;20424;-63
2023/06/02 11:22:38;;;;;;;1.70;1.20;;;26.20;92.60;;;;;;5112324;28;20498;-62
2023/06/02 11:25:05;;;;;;;1.70;1.00;;;26.30;91.10;;;;;;5111457;28;20799;-63
2023/06/02 11:27:40;;;;;;;4.10;1.00;;;26.70;90.70;;;;;;5111551;28;20424;-63
2023/06/02 11:30:12;;;;;;;1.52;1.05;;;26.50;88.80;;;;;;5111403;28;20434;-62
2023/06/02 11:32:39;;;;;;;1.80;1.00;;;26.80;86.10;;;;;;5111893;28;20428;-63
2023/06/02 11:35:09;;;;;;;1.80;1.07;;;26.60;84.90;;;;;;5112090;28;20849;-61
2023/06/02 11:37:38;;;;;;;2.10;1.10;;;26.50;84.20;;;;;;5113184;28;20420;-63
2023/06/02 11:40:09;;;;;;;1.52;1.10;;;26.50;82.60;;;;;;5113000;28;20424;-63
2023/06/02 11:42:37;;;;;;;1.45;1.10;;;26.40;81.10;;;;;;5112451;28;20436;-61
2023/06/02 11:45:06;;;;;;;1.88;1.10;;;26.10;82.10;;;;;;5112936;28;20423;-62
2023/06/02 11:47:33;;;;;;;1.73;1.00;;;26.10;82.40;;;;;;5109489;28;20431;-62
2023/06/02 11:50:00;;;;;;;1.40;0.90;;;25.90;81.60;;;;;;5114420;28;20424;-60
2023/06/02 11:52:33;;;;;;;1.67;1.08;;;26.10;81.60;;;;;;5118127;28;20424;-62
2023/06/02 11:55:00;;;;;;;2.20;1.03;;;26.30;76.60;;;;;;5117704;28;20439;-63
2023/06/02 11:57:32;;;;;;;1.33;1.00;;;26.10;78.30;;;;;;5108580;28;20436;-62
2023/06/02 12:00:11;;;;;;;1.70;1.00;;;26.60;79.40;;;;;;5094139;28;20429;-63
2023/06/02 12:02:40;;;;;;;2.00;1.10;;;26.60;78.80;;;;;;5109592;28;20425;-63
2023/06/02 12:05:11;;;;;;;1.55;1.00;;;25.90;79.40;;;;;;5101657;28;20463;-61
2023/06/02 12:07:41;;;;;;;2.50;1.10;;;26.10;80.40;;;;;;5116582;28;20445;-61
2023/06/02 12:10:10;;;;;;;1.45;0.90;;;26.50;78.30;;;;;;5116999;28;20412;-62
2023/06/02 12:12:37;;;;;;;1.70;1.10;;;26.80;76.60;;;;;;5116799;28;20481;-62
2023/06/02 12:15:16;;;;;;;2.00;0.90;;;27.00;74.40;;;;;;5115448;28;20435;-64
2023/06/02 12:17:45;;;;;;;1.20;0.90;;;26.40;73.50;;;;;;5104371;28;20459;-64
2023/06/02 12:20:12;;;;;;;1.70;1.02;;;26.40;74.40;;;;;;5103413;28;20512;-62
2023/06/02 12:22:56;;;;;;;1.40;0.90;;;26.60;72.20;;;;;;5093899;28;20482;-63
2023/06/02 12:25:23;;;;;;;2.40;0.90;;;27.10;69.40;;;;;;5093876;28;20856;-63
2023/06/02 12:27:50;;;;;;;1.20;0.98;;;27.10;70.10;;;;;;5094402;28;20875;-63
2023/06/02 12:30:17;;;;;;;1.30;1.00;;;27.40;64.90;;;;;;5094570;28;20421;-62
2023/06/02 12:32:44;;;;;;;1.60;0.90;;;27.80;63.30;;;;;;5095565;28;20487;-63
2023/06/02 12:35:11;;;;;;;1.20;0.90;;;27.20;64.20;;;;;;5094998;28;20430;-63
2023/06/02 12:37:42;;;;;;;1.70;0.90;;;27.10;65.00;;;;;;5093126;28;20437;-64
2023/06/02 12:40:11;;;;;;;1.60;1.00;;;27.20;64.20;;;;;;5091616;28;20934;-63
2023/06/02 12:42:38;;;;;;;1.30;0.90;;;27.70;63.80;;;;;;5092806;28;20932;-64
2023/06/02 12:45:06;;;;;;;3.20;1.00;;;27.70;63.70;;;;;;5095326;28;20426;-64
2023/06/02 12:47:34;;;;;;;1.50;1.20;;;27.60;63.30;;;;;;5093154;28;20433;-63
2023/06/02 12:50:04;;;;;;;1.40;0.95;;;27.30;64.30;;;;;;5093921;28;20445;-62
2023/06/02 12:52:32;;;;;;;1.58;0.90;;;27.00;63.30;;;;;;5094212;28;20418;-62
2023/06/02 12:54:59;;;;;;;1.60;0.90;;;27.30;62.00;;;;;;5096063;28;20437;-63
2023/06/02 12:57:28;;;;;;;1.30;0.90;;;27.50;58.40;;;;;;5096741;28;20922;-63